sensor_id;sensor_type;location;lat;lon;timestamp;P1;durP1;ratioP1;P2;durP2;ratioP2
81821;SDS011;72257;52.384;4.882;2023-12-14T00:02:17;8.67;;;4.80;;
81821;SDS011;72257;52.384;4.882;2023-12-14T00:04:43;9.27;;;4.70;;
81821;SDS011;72257;52.384;4.882;2023-12-14T00:07:08;9.23;;;4.30;;
81821;SDS011;72257;52.384;4.882;2023-12-14T00:09:33;9.63;;;5.17;;
81821;SDS011;72257;52.384;4.882;2023-12-14T00:11:58;8.63;;;4.77;;
81821;SDS011;72257;52.384;4.882;2023-12-14T00:14:23;8.13;;;4.43;;
81821;SDS011;72257;52.384;4.882;2023-12-14T00:16:48;11.03;;;5.10;;
81821;SDS011;72257;52.384;4.882;2023-12-14T00:19:14;10.25;;;4.93;;
81821;SDS011;72257;52.384;4.882;2023-12-14T00:21:39;10.37;;;5.60;;
81821;SDS011;72257;52.384;4.882;2023-12-14T00:24:04;10.07;;;4.80;;
81821;SDS011;72257;52.384;4.882;2023-12-14T00:26:30;11.38;;;5.32;;
81821;SDS011;72257;52.384;4.882;2023-12-14T00:28:55;11.27;;;5.60;;
81821;SDS011;72257;52.384;4.882;2023-12-14T00:31:20;13.03;;;5.67;;
81821;SDS011;72257;52.384;4.882;2023-12-14T00:33:45;11.23;;;5.27;;
81821;SDS011;72257;52.384;4.882;2023-12-14T00:36:17;11.63;;;6.00;;
81821;SDS011;72257;52.384;4.882;2023-12-14T00:38:42;11.68;;;6.10;;
81821;SDS011;72257;52.384;4.882;2023-12-14T00:41:07;10.77;;;6.00;;
81821;SDS011;72257;52.384;4.882;2023-12-14T00:43:32;11.03;;;5.77;;
81821;SDS011;72257;52.384;4.882;2023-12-14T00:45:57;10.87;;;6.50;;
81821;SDS011;72257;52.384;4.882;2023-12-14T00:48:22;10.57;;;5.50;;
81821;SDS011;72257;52.384;4.882;2023-12-14T00:50:48;10.73;;;5.63;;
81821;SDS011;72257;52.384;4.882;2023-12-14T00:53:13;13.07;;;5.80;;
81821;SDS011;72257;52.384;4.882;2023-12-14T00:55:38;11.17;;;5.37;;
81821;SDS011;72257;52.384;4.882;2023-12-14T00:58:03;10.13;;;5.90;;
81821;SDS011;72257;52.384;4.882;2023-12-14T01:00:28;11.47;;;5.60;;
81821;SDS011;72257;52.384;4.882;2023-12-14T01:02:54;13.77;;;6.10;;
81821;SDS011;72257;52.384;4.882;2023-12-14T01:05:19;12.13;;;5.93;;
81821;SDS011;72257;52.384;4.882;2023-12-14T01:07:44;11.97;;;5.93;;
81821;SDS011;72257;52.384;4.882;2023-12-14T01:10:09;9.53;;;5.37;;
81821;SDS011;72257;52.384;4.882;2023-12-14T01:12:35;12.63;;;5.47;;
81821;SDS011;72257;52.384;4.882;2023-12-14T01:15:00;8.53;;;4.70;;
81821;SDS011;72257;52.384;4.882;2023-12-14T01:17:25;8.97;;;4.67;;
81821;SDS011;72257;52.384;4.882;2023-12-14T01:19:50;9.23;;;5.30;;
81821;SDS011;72257;52.384;4.882;2023-12-14T01:22:15;12.83;;;4.97;;
81821;SDS011;72257;52.384;4.882;2023-12-14T01:24:41;10.93;;;5.80;;
81821;SDS011;72257;52.384;4.882;2023-12-14T01:27:06;12.17;;;5.50;;
81821;SDS011;72257;52.384;4.882;2023-12-14T01:29:31;14.00;;;5.40;;
81821;SDS011;72257;52.384;4.882;2023-12-14T01:31:56;12.03;;;5.87;;
81821;SDS011;72257;52.384;4.882;2023-12-14T01:34:21;12.37;;;5.57;;
81821;SDS011;72257;52.384;4.882;2023-12-14T01:36:46;8.73;;;5.17;;
81821;SDS011;72257;52.384;4.882;2023-12-14T01:39:12;11.17;;;5.10;;
81821;SDS011;72257;52.384;4.882;2023-12-14T01:41:37;12.03;;;5.30;;
81821;SDS011;72257;52.384;4.882;2023-12-14T01:44:02;11.63;;;5.50;;
81821;SDS011;72257;52.384;4.882;2023-12-14T01:46:27;11.33;;;5.30;;
81821;SDS011;72257;52.384;4.882;2023-12-14T01:48:52;11.40;;;5.40;;
81821;SDS011;72257;52.384;4.882;2023-12-14T01:51:18;11.30;;;5.37;;
81821;SDS011;72257;52.384;4.882;2023-12-14T01:53:43;10.13;;;5.63;;
81821;SDS011;72257;52.384;4.882;2023-12-14T01:56:08;11.57;;;5.73;;
81821;SDS011;72257;52.384;4.882;2023-12-14T01:58:34;11.10;;;5.70;;
81821;SDS011;72257;52.384;4.882;2023-12-14T02:01:08;12.23;;;6.03;;
81821;SDS011;72257;52.384;4.882;2023-12-14T02:03:36;15.45;;;5.78;;
81821;SDS011;72257;52.384;4.882;2023-12-14T02:06:01;10.43;;;5.13;;
81821;SDS011;72257;52.384;4.882;2023-12-14T02:08:27;10.88;;;5.13;;
81821;SDS011;72257;52.384;4.882;2023-12-14T02:10:52;11.90;;;4.57;;
81821;SDS011;72257;52.384;4.882;2023-12-14T02:13:18;9.07;;;4.73;;
81821;SDS011;72257;52.384;4.882;2023-12-14T02:15:43;9.40;;;4.90;;
81821;SDS011;72257;52.384;4.882;2023-12-14T02:18:08;11.23;;;4.90;;
81821;SDS011;72257;52.384;4.882;2023-12-14T02:20:33;10.93;;;4.87;;
81821;SDS011;72257;52.384;4.882;2023-12-14T02:22:58;8.63;;;4.40;;
81821;SDS011;72257;52.384;4.882;2023-12-14T02:25:23;7.77;;;4.90;;
81821;SDS011;72257;52.384;4.882;2023-12-14T02:27:49;10.93;;;4.07;;
81821;SDS011;72257;52.384;4.882;2023-12-14T02:30:15;9.52;;;5.25;;
81821;SDS011;72257;52.384;4.882;2023-12-14T02:32:41;8.27;;;3.85;;
81821;SDS011;72257;52.384;4.882;2023-12-14T02:35:06;9.13;;;5.13;;
81821;SDS011;72257;52.384;4.882;2023-12-14T02:37:32;8.32;;;4.43;;
81821;SDS011;72257;52.384;4.882;2023-12-14T02:39:57;8.55;;;4.20;;
81821;SDS011;72257;52.384;4.882;2023-12-14T02:42:23;9.13;;;4.38;;
81821;SDS011;72257;52.384;4.882;2023-12-14T02:44:49;7.50;;;4.10;;
81821;SDS011;72257;52.384;4.882;2023-12-14T02:47:14;6.50;;;3.67;;
81821;SDS011;72257;52.384;4.882;2023-12-14T02:49:39;7.20;;;3.70;;
81821;SDS011;72257;52.384;4.882;2023-12-14T02:52:04;7.67;;;3.80;;
81821;SDS011;72257;52.384;4.882;2023-12-14T02:54:30;8.53;;;3.90;;
81821;SDS011;72257;52.384;4.882;2023-12-14T02:56:55;5.90;;;3.40;;
81821;SDS011;72257;52.384;4.882;2023-12-14T02:59:20;6.57;;;3.17;;
81821;SDS011;72257;52.384;4.882;2023-12-14T03:01:45;7.00;;;3.27;;
81821;SDS011;72257;52.384;4.882;2023-12-14T03:04:11;6.97;;;3.13;;
81821;SDS011;72257;52.384;4.882;2023-12-14T03:06:36;9.17;;;3.80;;
81821;SDS011;72257;52.384;4.882;2023-12-14T03:09:01;6.20;;;3.20;;
81821;SDS011;72257;52.384;4.882;2023-12-14T03:11:26;8.60;;;2.87;;
81821;SDS011;72257;52.384;4.882;2023-12-14T03:13:51;5.57;;;3.10;;
81821;SDS011;72257;52.384;4.882;2023-12-14T03:16:17;6.97;;;2.93;;
81821;SDS011;72257;52.384;4.882;2023-12-14T03:18:42;5.45;;;2.70;;
81821;SDS011;72257;52.384;4.882;2023-12-14T03:21:08;4.97;;;3.10;;
81821;SDS011;72257;52.384;4.882;2023-12-14T03:23:33;5.93;;;2.75;;
81821;SDS011;72257;52.384;4.882;2023-12-14T03:25:58;6.43;;;2.90;;
81821;SDS011;72257;52.384;4.882;2023-12-14T03:28:24;8.30;;;3.30;;
81821;SDS011;72257;52.384;4.882;2023-12-14T03:30:49;9.20;;;3.80;;
81821;SDS011;72257;52.384;4.882;2023-12-14T03:33:14;5.73;;;3.10;;
81821;SDS011;72257;52.384;4.882;2023-12-14T03:35:39;7.00;;;3.20;;
81821;SDS011;72257;52.384;4.882;2023-12-14T03:38:06;7.45;;;3.30;;
81821;SDS011;72257;52.384;4.882;2023-12-14T03:40:32;6.10;;;3.20;;
81821;SDS011;72257;52.384;4.882;2023-12-14T03:42:57;11.13;;;3.50;;
81821;SDS011;72257;52.384;4.882;2023-12-14T03:45:22;6.40;;;3.20;;
81821;SDS011;72257;52.384;4.882;2023-12-14T03:47:47;6.87;;;3.40;;
81821;SDS011;72257;52.384;4.882;2023-12-14T03:50:12;7.00;;;3.67;;
81821;SDS011;72257;52.384;4.882;2023-12-14T03:52:38;5.83;;;3.53;;
81821;SDS011;72257;52.384;4.882;2023-12-14T03:55:03;6.77;;;3.23;;
81821;SDS011;72257;52.384;4.882;2023-12-14T03:57:28;6.32;;;3.45;;
81821;SDS011;72257;52.384;4.882;2023-12-14T03:59:53;7.23;;;3.00;;
81821;SDS011;72257;52.384;4.882;2023-12-14T04:02:18;5.73;;;3.00;;
81821;SDS011;72257;52.384;4.882;2023-12-14T04:04:44;6.97;;;2.90;;
81821;SDS011;72257;52.384;4.882;2023-12-14T04:07:10;6.80;;;3.00;;
81821;SDS011;72257;52.384;4.882;2023-12-14T04:09:35;7.57;;;3.23;;
81821;SDS011;72257;52.384;4.882;2023-12-14T04:12:00;6.00;;;3.20;;
81821;SDS011;72257;52.384;4.882;2023-12-14T04:14:25;7.23;;;3.40;;
81821;SDS011;72257;52.384;4.882;2023-12-14T04:16:50;5.53;;;3.03;;
81821;SDS011;72257;52.384;4.882;2023-12-14T04:19:16;5.90;;;3.10;;
81821;SDS011;72257;52.384;4.882;2023-12-14T04:21:41;4.23;;;2.77;;
81821;SDS011;72257;52.384;4.882;2023-12-14T04:24:06;5.50;;;3.10;;
81821;SDS011;72257;52.384;4.882;2023-12-14T04:26:31;5.27;;;2.77;;
81821;SDS011;72257;52.384;4.882;2023-12-14T04:28:57;6.90;;;3.00;;
81821;SDS011;72257;52.384;4.882;2023-12-14T04:31:22;5.77;;;2.67;;
81821;SDS011;72257;52.384;4.882;2023-12-14T04:33:47;5.83;;;2.77;;
81821;SDS011;72257;52.384;4.882;2023-12-14T04:36:12;5.97;;;2.87;;
81821;SDS011;72257;52.384;4.882;2023-12-14T04:38:37;6.03;;;2.93;;
81821;SDS011;72257;52.384;4.882;2023-12-14T04:41:03;5.47;;;3.13;;
81821;SDS011;72257;52.384;4.882;2023-12-14T04:43:28;6.13;;;3.50;;
81821;SDS011;72257;52.384;4.882;2023-12-14T04:45:57;5.18;;;3.08;;
81821;SDS011;72257;52.384;4.882;2023-12-14T04:48:22;5.90;;;3.27;;
81821;SDS011;72257;52.384;4.882;2023-12-14T04:50:47;5.13;;;2.80;;
81821;SDS011;72257;52.384;4.882;2023-12-14T04:53:14;6.17;;;3.20;;
81821;SDS011;72257;52.384;4.882;2023-12-14T04:55:39;6.47;;;3.17;;
81821;SDS011;72257;52.384;4.882;2023-12-14T04:58:04;5.10;;;2.97;;
81821;SDS011;72257;52.384;4.882;2023-12-14T05:00:29;8.37;;;3.50;;
81821;SDS011;72257;52.384;4.882;2023-12-14T05:02:54;5.60;;;3.23;;
81821;SDS011;72257;52.384;4.882;2023-12-14T05:05:20;5.17;;;3.13;;
81821;SDS011;72257;52.384;4.882;2023-12-14T05:07:45;5.90;;;2.80;;
81821;SDS011;72257;52.384;4.882;2023-12-14T05:10:10;7.27;;;4.17;;
81821;SDS011;72257;52.384;4.882;2023-12-14T05:12:35;5.65;;;3.38;;
81821;SDS011;72257;52.384;4.882;2023-12-14T05:15:01;7.33;;;3.90;;
81821;SDS011;72257;52.384;4.882;2023-12-14T05:17:26;4.77;;;2.97;;
81821;SDS011;72257;52.384;4.882;2023-12-14T05:19:51;7.57;;;3.60;;
81821;SDS011;72257;52.384;4.882;2023-12-14T05:22:16;4.90;;;3.07;;
81821;SDS011;72257;52.384;4.882;2023-12-14T05:24:44;5.75;;;2.97;;
81821;SDS011;72257;52.384;4.882;2023-12-14T05:27:09;8.27;;;3.80;;
81821;SDS011;72257;52.384;4.882;2023-12-14T05:29:34;4.53;;;3.20;;
81821;SDS011;72257;52.384;4.882;2023-12-14T05:31:59;4.67;;;3.23;;
81821;SDS011;72257;52.384;4.882;2023-12-14T05:34:25;5.47;;;3.23;;
81821;SDS011;72257;52.384;4.882;2023-12-14T05:36:50;6.43;;;4.13;;
81821;SDS011;72257;52.384;4.882;2023-12-14T05:39:15;7.17;;;3.90;;
81821;SDS011;72257;52.384;4.882;2023-12-14T05:41:40;5.70;;;3.57;;
81821;SDS011;72257;52.384;4.882;2023-12-14T05:44:06;8.77;;;3.78;;
81821;SDS011;72257;52.384;4.882;2023-12-14T05:46:31;6.27;;;3.90;;
81821;SDS011;72257;52.384;4.882;2023-12-14T05:48:57;6.17;;;3.73;;
81821;SDS011;72257;52.384;4.882;2023-12-14T05:51:31;7.20;;;3.90;;
81821;SDS011;72257;52.384;4.882;2023-12-14T05:53:57;6.60;;;4.07;;
81821;SDS011;72257;52.384;4.882;2023-12-14T05:56:22;7.30;;;3.77;;
81821;SDS011;72257;52.384;4.882;2023-12-14T05:58:47;7.95;;;4.60;;
81821;SDS011;72257;52.384;4.882;2023-12-14T06:01:13;11.00;;;4.38;;
81821;SDS011;72257;52.384;4.882;2023-12-14T06:03:39;7.23;;;3.73;;
81821;SDS011;72257;52.384;4.882;2023-12-14T06:06:04;9.13;;;4.33;;
81821;SDS011;72257;52.384;4.882;2023-12-14T06:08:29;8.33;;;4.13;;
81821;SDS011;72257;52.384;4.882;2023-12-14T06:10:54;9.57;;;4.37;;
81821;SDS011;72257;52.384;4.882;2023-12-14T06:13:19;7.00;;;3.90;;
81821;SDS011;72257;52.384;4.882;2023-12-14T06:15:46;6.75;;;3.97;;
81821;SDS011;72257;52.384;4.882;2023-12-14T06:18:14;8.23;;;4.50;;
81821;SDS011;72257;52.384;4.882;2023-12-14T06:20:39;8.52;;;3.55;;
81821;SDS011;72257;52.384;4.882;2023-12-14T06:23:05;8.07;;;4.00;;
81821;SDS011;72257;52.384;4.882;2023-12-14T06:25:30;6.40;;;3.40;;
81821;SDS011;72257;52.384;4.882;2023-12-14T06:27:56;5.77;;;3.63;;
81821;SDS011;72257;52.384;4.882;2023-12-14T06:30:21;7.23;;;3.40;;
81821;SDS011;72257;52.384;4.882;2023-12-14T06:32:46;5.77;;;3.60;;
81821;SDS011;72257;52.384;4.882;2023-12-14T06:35:11;7.20;;;3.57;;
81821;SDS011;72257;52.384;4.882;2023-12-14T06:37:37;5.78;;;3.50;;
81821;SDS011;72257;52.384;4.882;2023-12-14T06:40:02;6.77;;;3.80;;
81821;SDS011;72257;52.384;4.882;2023-12-14T06:42:28;5.25;;;3.65;;
81821;SDS011;72257;52.384;4.882;2023-12-14T06:44:53;8.10;;;3.90;;
81821;SDS011;72257;52.384;4.882;2023-12-14T06:47:18;6.60;;;3.92;;
81821;SDS011;72257;52.384;4.882;2023-12-14T06:49:44;6.07;;;3.87;;
81821;SDS011;72257;52.384;4.882;2023-12-14T06:52:09;7.53;;;4.13;;
81821;SDS011;72257;52.384;4.882;2023-12-14T06:54:34;7.25;;;3.97;;
81821;SDS011;72257;52.384;4.882;2023-12-14T06:57:00;7.68;;;3.78;;
81821;SDS011;72257;52.384;4.882;2023-12-14T06:59:25;7.17;;;4.00;;
81821;SDS011;72257;52.384;4.882;2023-12-14T07:01:51;7.30;;;4.00;;
81821;SDS011;72257;52.384;4.882;2023-12-14T07:04:16;6.88;;;3.60;;
81821;SDS011;72257;52.384;4.882;2023-12-14T07:06:49;7.30;;;3.72;;
81821;SDS011;72257;52.384;4.882;2023-12-14T07:09:14;6.60;;;3.83;;
81821;SDS011;72257;52.384;4.882;2023-12-14T07:11:40;9.73;;;4.13;;
81821;SDS011;72257;52.384;4.882;2023-12-14T07:14:05;9.00;;;4.30;;
81821;SDS011;72257;52.384;4.882;2023-12-14T07:16:30;6.73;;;3.50;;
81821;SDS011;72257;52.384;4.882;2023-12-14T07:18:55;7.17;;;3.70;;
81821;SDS011;72257;52.384;4.882;2023-12-14T07:21:20;5.83;;;3.20;;
81821;SDS011;72257;52.384;4.882;2023-12-14T07:23:47;6.47;;;4.28;;
81821;SDS011;72257;52.384;4.882;2023-12-14T07:26:13;6.70;;;3.53;;
81821;SDS011;72257;52.384;4.882;2023-12-14T07:28:38;6.93;;;3.87;;
81821;SDS011;72257;52.384;4.882;2023-12-14T07:31:03;7.47;;;4.03;;
81821;SDS011;72257;52.384;4.882;2023-12-14T07:33:28;7.53;;;4.00;;
81821;SDS011;72257;52.384;4.882;2023-12-14T07:35:54;6.20;;;3.27;;
81821;SDS011;72257;52.384;4.882;2023-12-14T07:38:19;6.45;;;3.40;;
81821;SDS011;72257;52.384;4.882;2023-12-14T07:40:44;6.67;;;3.40;;
81821;SDS011;72257;52.384;4.882;2023-12-14T07:43:11;7.30;;;3.70;;
81821;SDS011;72257;52.384;4.882;2023-12-14T07:45:36;8.03;;;4.00;;
81821;SDS011;72257;52.384;4.882;2023-12-14T07:48:02;8.40;;;4.00;;
81821;SDS011;72257;52.384;4.882;2023-12-14T07:50:28;6.80;;;3.92;;
81821;SDS011;72257;52.384;4.882;2023-12-14T07:52:54;6.80;;;3.80;;
81821;SDS011;72257;52.384;4.882;2023-12-14T07:55:22;7.53;;;3.20;;
81821;SDS011;72257;52.384;4.882;2023-12-14T07:57:47;8.45;;;4.78;;
81821;SDS011;72257;52.384;4.882;2023-12-14T08:00:13;8.30;;;4.10;;
81821;SDS011;72257;52.384;4.882;2023-12-14T08:02:38;6.07;;;4.00;;
81821;SDS011;72257;52.384;4.882;2023-12-14T08:05:04;5.33;;;3.20;;
81821;SDS011;72257;52.384;4.882;2023-12-14T08:07:30;7.35;;;4.30;;
81821;SDS011;72257;52.384;4.882;2023-12-14T08:09:55;8.32;;;3.83;;
81821;SDS011;72257;52.384;4.882;2023-12-14T08:12:21;8.47;;;4.57;;
81821;SDS011;72257;52.384;4.882;2023-12-14T08:14:47;9.57;;;5.45;;
81821;SDS011;72257;52.384;4.882;2023-12-14T08:17:12;5.73;;;3.50;;
81821;SDS011;72257;52.384;4.882;2023-12-14T08:19:37;7.43;;;3.93;;
81821;SDS011;72257;52.384;4.882;2023-12-14T08:22:02;6.70;;;3.70;;
81821;SDS011;72257;52.384;4.882;2023-12-14T08:24:28;7.63;;;3.57;;
81821;SDS011;72257;52.384;4.882;2023-12-14T08:26:53;6.78;;;4.25;;
81821;SDS011;72257;52.384;4.882;2023-12-14T08:29:18;8.57;;;4.23;;
81821;SDS011;72257;52.384;4.882;2023-12-14T08:31:43;10.50;;;4.17;;
81821;SDS011;72257;52.384;4.882;2023-12-14T08:34:10;10.40;;;5.03;;
81821;SDS011;72257;52.384;4.882;2023-12-14T08:36:35;8.05;;;4.10;;
81821;SDS011;72257;52.384;4.882;2023-12-14T08:39:00;7.17;;;4.00;;
81821;SDS011;72257;52.384;4.882;2023-12-14T08:41:25;7.53;;;4.10;;
81821;SDS011;72257;52.384;4.882;2023-12-14T08:43:51;9.00;;;4.37;;
81821;SDS011;72257;52.384;4.882;2023-12-14T08:46:16;9.33;;;4.10;;
81821;SDS011;72257;52.384;4.882;2023-12-14T08:48:41;9.20;;;4.20;;
81821;SDS011;72257;52.384;4.882;2023-12-14T08:51:06;6.85;;;4.30;;
81821;SDS011;72257;52.384;4.882;2023-12-14T08:53:32;9.00;;;4.43;;
81821;SDS011;72257;52.384;4.882;2023-12-14T08:55:57;5.97;;;3.93;;
81821;SDS011;72257;52.384;4.882;2023-12-14T08:58:22;7.97;;;3.80;;
81821;SDS011;72257;52.384;4.882;2023-12-14T09:00:47;9.10;;;4.37;;
81821;SDS011;72257;52.384;4.882;2023-12-14T09:03:17;8.32;;;3.97;;
81821;SDS011;72257;52.384;4.882;2023-12-14T09:05:42;5.97;;;3.40;;
81821;SDS011;72257;52.384;4.882;2023-12-14T09:08:08;8.70;;;3.40;;
81821;SDS011;72257;52.384;4.882;2023-12-14T09:10:33;7.13;;;3.70;;
81821;SDS011;72257;52.384;4.882;2023-12-14T09:12:59;6.90;;;3.65;;
81821;SDS011;72257;52.384;4.882;2023-12-14T09:15:25;8.80;;;3.42;;
81821;SDS011;72257;52.384;4.882;2023-12-14T09:17:50;6.53;;;3.37;;
81821;SDS011;72257;52.384;4.882;2023-12-14T09:20:15;5.33;;;3.20;;
81821;SDS011;72257;52.384;4.882;2023-12-14T09:22:40;10.30;;;3.53;;
81821;SDS011;72257;52.384;4.882;2023-12-14T09:25:06;5.57;;;3.60;;
81821;SDS011;72257;52.384;4.882;2023-12-14T09:27:31;5.93;;;3.33;;
81821;SDS011;72257;52.384;4.882;2023-12-14T09:29:57;6.30;;;3.10;;
81821;SDS011;72257;52.384;4.882;2023-12-14T09:32:22;6.73;;;3.23;;
81821;SDS011;72257;52.384;4.882;2023-12-14T09:34:47;7.27;;;3.80;;
81821;SDS011;72257;52.384;4.882;2023-12-14T09:37:12;8.77;;;3.63;;
81821;SDS011;72257;52.384;4.882;2023-12-14T09:39:39;6.65;;;3.70;;
81821;SDS011;72257;52.384;4.882;2023-12-14T09:42:05;7.93;;;3.40;;
81821;SDS011;72257;52.384;4.882;2023-12-14T09:44:31;9.30;;;4.57;;
81821;SDS011;72257;52.384;4.882;2023-12-14T09:46:59;5.05;;;3.03;;
81821;SDS011;72257;52.384;4.882;2023-12-14T09:49:31;7.38;;;3.88;;
81821;SDS011;72257;52.384;4.882;2023-12-14T09:51:57;6.50;;;3.42;;
81821;SDS011;72257;52.384;4.882;2023-12-14T09:54:23;7.07;;;3.80;;
81821;SDS011;72257;52.384;4.882;2023-12-14T09:56:48;7.13;;;3.53;;
81821;SDS011;72257;52.384;4.882;2023-12-14T09:59:14;8.75;;;4.03;;
81821;SDS011;72257;52.384;4.882;2023-12-14T10:01:39;6.18;;;3.60;;
81821;SDS011;72257;52.384;4.882;2023-12-14T10:04:14;5.35;;;3.25;;
81821;SDS011;72257;52.384;4.882;2023-12-14T10:06:40;6.47;;;3.50;;
81821;SDS011;72257;52.384;4.882;2023-12-14T10:09:06;5.90;;;3.40;;
81821;SDS011;72257;52.384;4.882;2023-12-14T10:11:37;5.97;;;3.10;;
81821;SDS011;72257;52.384;4.882;2023-12-14T10:14:03;9.23;;;3.63;;
81821;SDS011;72257;52.384;4.882;2023-12-14T10:16:32;6.15;;;3.30;;
81821;SDS011;72257;52.384;4.882;2023-12-14T10:18:57;7.38;;;3.67;;
81821;SDS011;72257;52.384;4.882;2023-12-14T10:21:26;6.55;;;3.60;;
81821;SDS011;72257;52.384;4.882;2023-12-14T10:23:52;6.40;;;3.67;;
81821;SDS011;72257;52.384;4.882;2023-12-14T10:26:21;9.25;;;3.53;;
81821;SDS011;72257;52.384;4.882;2023-12-14T10:28:46;5.82;;;3.22;;
81821;SDS011;72257;52.384;4.882;2023-12-14T10:31:12;9.10;;;3.53;;
81821;SDS011;72257;52.384;4.882;2023-12-14T10:33:37;5.80;;;3.33;;
81821;SDS011;72257;52.384;4.882;2023-12-14T10:36:03;5.45;;;3.05;;
81821;SDS011;72257;52.384;4.882;2023-12-14T10:38:29;7.35;;;3.20;;
81821;SDS011;72257;52.384;4.882;2023-12-14T10:40:54;7.20;;;3.53;;
81821;SDS011;72257;52.384;4.882;2023-12-14T10:43:20;8.57;;;4.18;;
81821;SDS011;72257;52.384;4.882;2023-12-14T10:45:46;6.53;;;3.90;;
81821;SDS011;72257;52.384;4.882;2023-12-14T10:48:12;8.32;;;3.65;;
81821;SDS011;72257;52.384;4.882;2023-12-14T10:50:38;9.63;;;3.85;;
81821;SDS011;72257;52.384;4.882;2023-12-14T10:53:05;8.60;;;4.30;;
81821;SDS011;72257;52.384;4.882;2023-12-14T10:55:37;7.88;;;3.83;;
81821;SDS011;72257;52.384;4.882;2023-12-14T10:58:03;7.90;;;4.22;;
81821;SDS011;72257;52.384;4.882;2023-12-14T11:00:28;8.25;;;3.92;;
81821;SDS011;72257;52.384;4.882;2023-12-14T11:02:54;10.75;;;4.32;;
81821;SDS011;72257;52.384;4.882;2023-12-14T11:05:19;8.33;;;4.20;;
81821;SDS011;72257;52.384;4.882;2023-12-14T11:07:55;6.90;;;3.47;;
81821;SDS011;72257;52.384;4.882;2023-12-14T11:10:22;7.80;;;3.90;;
81821;SDS011;72257;52.384;4.882;2023-12-14T11:12:54;6.97;;;3.90;;
81821;SDS011;72257;52.384;4.882;2023-12-14T11:15:21;6.80;;;3.63;;
81821;SDS011;72257;52.384;4.882;2023-12-14T11:20:30;7.63;;;4.03;;
81821;SDS011;72257;52.384;4.882;2023-12-14T11:22:55;9.57;;;4.07;;
81821;SDS011;72257;52.384;4.882;2023-12-14T11:25:23;9.90;;;4.47;;
81821;SDS011;72257;52.384;4.882;2023-12-14T11:27:49;8.68;;;4.45;;
81821;SDS011;72257;52.384;4.882;2023-12-14T11:30:14;11.87;;;4.70;;
81821;SDS011;72257;52.384;4.882;2023-12-14T11:32:41;10.27;;;4.78;;
81821;SDS011;72257;52.384;4.882;2023-12-14T11:35:06;7.20;;;4.57;;
81821;SDS011;72257;52.384;4.882;2023-12-14T11:37:35;8.07;;;4.65;;
81821;SDS011;72257;52.384;4.882;2023-12-14T11:40:01;9.48;;;4.95;;
81821;SDS011;72257;52.384;4.882;2023-12-14T11:42:26;11.13;;;4.30;;
81821;SDS011;72257;52.384;4.882;2023-12-14T11:44:56;9.45;;;4.45;;
81821;SDS011;72257;52.384;4.882;2023-12-14T11:47:21;10.57;;;5.07;;
81821;SDS011;72257;52.384;4.882;2023-12-14T11:49:46;9.03;;;4.70;;
81821;SDS011;72257;52.384;4.882;2023-12-14T11:52:12;9.00;;;4.30;;
81821;SDS011;72257;52.384;4.882;2023-12-14T11:54:37;10.30;;;5.25;;
81821;SDS011;72257;52.384;4.882;2023-12-14T11:57:02;8.60;;;4.70;;
81821;SDS011;72257;52.384;4.882;2023-12-14T11:59:28;9.90;;;4.55;;
81821;SDS011;72257;52.384;4.882;2023-12-14T12:01:54;12.20;;;5.70;;
81821;SDS011;72257;52.384;4.882;2023-12-14T12:04:20;9.65;;;4.72;;
81821;SDS011;72257;52.384;4.882;2023-12-14T12:06:45;10.50;;;5.10;;
81821;SDS011;72257;52.384;4.882;2023-12-14T12:09:11;12.40;;;6.13;;
81821;SDS011;72257;52.384;4.882;2023-12-14T12:11:37;11.73;;;5.93;;
81821;SDS011;72257;52.384;4.882;2023-12-14T12:14:02;11.03;;;6.20;;
81821;SDS011;72257;52.384;4.882;2023-12-14T12:16:27;15.50;;;6.27;;
81821;SDS011;72257;52.384;4.882;2023-12-14T12:18:52;12.13;;;6.53;;
81821;SDS011;72257;52.384;4.882;2023-12-14T12:21:18;13.13;;;6.67;;
81821;SDS011;72257;52.384;4.882;2023-12-14T12:23:43;10.60;;;6.00;;
81821;SDS011;72257;52.384;4.882;2023-12-14T12:26:08;10.40;;;5.63;;
81821;SDS011;72257;52.384;4.882;2023-12-14T12:28:33;12.43;;;6.35;;
81821;SDS011;72257;52.384;4.882;2023-12-14T12:30:59;10.53;;;5.40;;
81821;SDS011;72257;52.384;4.882;2023-12-14T12:33:25;9.50;;;5.22;;
81821;SDS011;72257;52.384;4.882;2023-12-14T12:35:50;9.20;;;5.03;;
81821;SDS011;72257;52.384;4.882;2023-12-14T12:38:16;11.65;;;5.28;;
81821;SDS011;72257;52.384;4.882;2023-12-14T12:40:41;10.07;;;4.90;;
81821;SDS011;72257;52.384;4.882;2023-12-14T12:43:06;9.00;;;4.87;;
81821;SDS011;72257;52.384;4.882;2023-12-14T12:45:32;10.77;;;4.70;;
81821;SDS011;72257;52.384;4.882;2023-12-14T12:47:57;10.50;;;5.43;;
81821;SDS011;72257;52.384;4.882;2023-12-14T12:50:22;9.13;;;4.93;;
81821;SDS011;72257;52.384;4.882;2023-12-14T12:52:47;10.27;;;4.57;;
81821;SDS011;72257;52.384;4.882;2023-12-14T12:55:14;10.63;;;5.32;;
81821;SDS011;72257;52.384;4.882;2023-12-14T12:57:39;10.45;;;5.05;;
81821;SDS011;72257;52.384;4.882;2023-12-14T13:00:06;8.20;;;4.63;;
81821;SDS011;72257;52.384;4.882;2023-12-14T13:02:36;8.50;;;5.22;;
81821;SDS011;72257;52.384;4.882;2023-12-14T13:05:01;14.32;;;5.32;;
81821;SDS011;72257;52.384;4.882;2023-12-14T13:07:26;10.13;;;5.17;;
81821;SDS011;72257;52.384;4.882;2023-12-14T13:09:52;9.20;;;5.03;;
81821;SDS011;72257;52.384;4.882;2023-12-14T13:12:17;10.50;;;5.10;;
81821;SDS011;72257;52.384;4.882;2023-12-14T13:14:42;8.63;;;5.10;;
81821;SDS011;72257;52.384;4.882;2023-12-14T13:17:07;7.23;;;4.63;;
81821;SDS011;72257;52.384;4.882;2023-12-14T13:19:32;10.53;;;4.50;;
81821;SDS011;72257;52.384;4.882;2023-12-14T13:21:57;12.20;;;5.43;;
81821;SDS011;72257;52.384;4.882;2023-12-14T13:24:24;9.02;;;4.68;;
81821;SDS011;72257;52.384;4.882;2023-12-14T13:26:49;12.83;;;5.27;;
81821;SDS011;72257;52.384;4.882;2023-12-14T13:29:14;9.33;;;5.00;;
81821;SDS011;72257;52.384;4.882;2023-12-14T13:31:40;7.43;;;4.27;;
81821;SDS011;72257;52.384;4.882;2023-12-14T13:34:05;7.70;;;4.37;;
81821;SDS011;72257;52.384;4.882;2023-12-14T13:36:30;9.37;;;4.77;;
81821;SDS011;72257;52.384;4.882;2023-12-14T13:38:55;10.77;;;4.67;;
81821;SDS011;72257;52.384;4.882;2023-12-14T13:41:21;10.55;;;4.82;;
81821;SDS011;72257;52.384;4.882;2023-12-14T13:43:46;10.02;;;4.63;;
81821;SDS011;72257;52.384;4.882;2023-12-14T13:46:12;8.70;;;4.30;;
81821;SDS011;72257;52.384;4.882;2023-12-14T13:48:37;9.47;;;4.60;;
81821;SDS011;72257;52.384;4.882;2023-12-14T13:51:02;9.47;;;5.40;;
81821;SDS011;72257;52.384;4.882;2023-12-14T13:53:28;7.60;;;3.85;;
81821;SDS011;72257;52.384;4.882;2023-12-14T13:55:53;8.37;;;4.20;;
81821;SDS011;72257;52.384;4.882;2023-12-14T13:58:19;11.17;;;4.57;;
81821;SDS011;72257;52.384;4.882;2023-12-14T14:00:45;11.07;;;5.20;;
81821;SDS011;72257;52.384;4.882;2023-12-14T14:03:10;10.00;;;5.37;;
81821;SDS011;72257;52.384;4.882;2023-12-14T14:05:35;10.87;;;4.50;;
81821;SDS011;72257;52.384;4.882;2023-12-14T14:08:00;9.53;;;4.87;;
81821;SDS011;72257;52.384;4.882;2023-12-14T14:10:26;8.82;;;5.25;;
81821;SDS011;72257;52.384;4.882;2023-12-14T14:12:51;9.47;;;4.57;;
81821;SDS011;72257;52.384;4.882;2023-12-14T14:15:16;10.63;;;5.35;;
81821;SDS011;72257;52.384;4.882;2023-12-14T14:17:42;10.53;;;5.63;;
81821;SDS011;72257;52.384;4.882;2023-12-14T14:20:07;12.03;;;5.43;;
81821;SDS011;72257;52.384;4.882;2023-12-14T14:22:34;9.35;;;4.57;;
81821;SDS011;72257;52.384;4.882;2023-12-14T14:24:59;11.17;;;6.00;;
81821;SDS011;72257;52.384;4.882;2023-12-14T14:27:25;9.73;;;5.43;;
81821;SDS011;72257;52.384;4.882;2023-12-14T14:29:50;11.68;;;5.22;;
81821;SDS011;72257;52.384;4.882;2023-12-14T14:32:19;8.32;;;5.25;;
81821;SDS011;72257;52.384;4.882;2023-12-14T14:34:44;10.67;;;5.03;;
81821;SDS011;72257;52.384;4.882;2023-12-14T14:37:09;12.83;;;5.17;;